Tropical Cyclones
[Index]
Main Index Home Page Stock Weather Photos Extreme Storms Discussion Storm News and Storm Chasing Reports Tropical Cyclones / Hurricanes / Typhoons Weather Data and Links Wild Fires / Bushfires Weather Observation Techniques Weather Picture Catalogue Tornado Pictures and Reports Stock Video Footage and DVDs for sale
Season 2017-2018 Tropical Cyclone HILDA Track Map
Season 2017-2018 Summaries: [BoM-AU] [JTWC-AU] [JTWC-SIO] [JTWC-SPAC] [JTWC-SH]
<<- Previous TC | JTWC 2017-2018 Season | Next TC ->>

click for intensity scale information  Lat/long Grid: Show Hide

 Date Labels: Show Hide

Joint Typhoon Warning Centre Cyclone Data

Name: HILDA

26 Dec 2017 00:00 UTC to 31 Dec 2017 06:00 UTC

    date/time    lat    long     hPa   cat  kts
2017-12-26 00   14.6   124.2    1004         20          
2017-12-26 06   15.2   123.7    1004         20          
2017-12-26 12   15.9   123.2    1002         25          
2017-12-26 18   16.4   122.9    1000         30          
2017-12-27 00   16.9   122.7     998         35          
2017-12-27 06   17.5   122.5     996    1    40          
2017-12-27 12   18.1   122.0     993    1    45          
2017-12-27 18   18.9   121.8     990    1    50          
2017-12-28 00   19.5   121.6     995    1    40          
2017-12-28 06   19.7   121.6     998         35          
2017-12-28 12   20.0   121.7     998         35          
2017-12-28 18   20.6   122.3     999         35          
2017-12-29 00   21.1   122.6    1002         30          
2017-12-29 06   21.6   123.0    1001         30          
2017-12-29 12   22.0   123.3    1000         30          
2017-12-29 18   22.5   123.5    1000         30          
2017-12-30 00   22.8   123.5    1002         25          
2017-12-30 06   23.3   123.5    1002         25          
2017-12-30 12   23.8   123.7    1002         25          
2017-12-30 18   24.4   124.2    1002         25          
2017-12-31 00   25.0   124.8    1004         20          
2017-12-31 06   25.6   125.4    1004         20          
Winds are 1-min average.

Tropical cyclone tracks developed by Michael Bath using data from the Joint Typhoon Warning Centre Best Tracks and Google Maps.


[Australian Severe Weather index] [Copyright Notice] [Email Contacts] [Search This Site] [Privacy Policy]
Document: tropical_cyclone_hilda.htm Updated: 12 March 2020